sensor_id;sensor_type;location;lat;lon;timestamp;P1;durP1;ratioP1;P2;durP2;ratioP2
38240;SDS011;24037;49.536;8.500;2023-01-15T00:01:27;3.90;;;1.35;;
38240;SDS011;24037;49.536;8.500;2023-01-15T00:03:55;4.25;;;2.00;;
38240;SDS011;24037;49.536;8.500;2023-01-15T00:06:24;4.28;;;1.80;;
38240;SDS011;24037;49.536;8.500;2023-01-15T00:08:51;5.53;;;2.78;;
38240;SDS011;24037;49.536;8.500;2023-01-15T00:11:18;4.28;;;1.75;;
38240;SDS011;24037;49.536;8.500;2023-01-15T00:13:45;1.10;;;0.68;;
38240;SDS011;24037;49.536;8.500;2023-01-15T00:16:13;5.18;;;2.70;;
38240;SDS011;24037;49.536;8.500;2023-01-15T00:18:50;3.08;;;1.45;;
38240;SDS011;24037;49.536;8.500;2023-01-15T00:21:17;1.02;;;0.60;;
38240;SDS011;24037;49.536;8.500;2023-01-15T00:23:44;2.50;;;0.80;;
38240;SDS011;24037;49.536;8.500;2023-01-15T00:26:30;6.80;;;2.15;;
38240;SDS011;24037;49.536;8.500;2023-01-15T00:29:17;2.13;;;0.65;;
38240;SDS011;24037;49.536;8.500;2023-01-15T00:31:49;2.80;;;1.38;;
38240;SDS011;24037;49.536;8.500;2023-01-15T00:34:24;1.45;;;0.82;;
38240;SDS011;24037;49.536;8.500;2023-01-15T00:36:51;3.13;;;0.88;;
38240;SDS011;24037;49.536;8.500;2023-01-15T00:39:18;1.83;;;0.85;;
38240;SDS011;24037;49.536;8.500;2023-01-15T00:41:45;2.25;;;0.88;;
38240;SDS011;24037;49.536;8.500;2023-01-15T00:44:12;2.55;;;0.52;;
38240;SDS011;24037;49.536;8.500;2023-01-15T00:46:38;1.63;;;0.50;;
38240;SDS011;24037;49.536;8.500;2023-01-15T00:49:04;2.08;;;0.40;;
38240;SDS011;24037;49.536;8.500;2023-01-15T00:51:31;1.42;;;0.60;;
38240;SDS011;24037;49.536;8.500;2023-01-15T00:53:58;1.35;;;0.63;;
38240;SDS011;24037;49.536;8.500;2023-01-15T00:56:24;0.98;;;0.45;;
38240;SDS011;24037;49.536;8.500;2023-01-15T00:58:51;1.65;;;0.50;;
38240;SDS011;24037;49.536;8.500;2023-01-15T01:01:17;1.27;;;0.50;;
38240;SDS011;24037;49.536;8.500;2023-01-15T01:03:43;1.95;;;0.40;;
38240;SDS011;24037;49.536;8.500;2023-01-15T01:06:14;1.38;;;0.40;;
38240;SDS011;24037;49.536;8.500;2023-01-15T01:08:42;0.85;;;0.40;;
38240;SDS011;24037;49.536;8.500;2023-01-15T01:11:12;1.40;;;0.67;;
38240;SDS011;24037;49.536;8.500;2023-01-15T01:13:44;0.90;;;0.40;;
38240;SDS011;24037;49.536;8.500;2023-01-15T01:16:30;0.70;;;0.35;;
38240;SDS011;24037;49.536;8.500;2023-01-15T01:19:03;1.98;;;0.75;;
38240;SDS011;24037;49.536;8.500;2023-01-15T01:21:35;0.77;;;0.47;;
38240;SDS011;24037;49.536;8.500;2023-01-15T01:24:02;1.38;;;0.60;;
38240;SDS011;24037;49.536;8.500;2023-01-15T01:26:32;0.88;;;0.40;;
38240;SDS011;24037;49.536;8.500;2023-01-15T01:28:59;0.43;;;0.30;;
38240;SDS011;24037;49.536;8.500;2023-01-15T01:31:25;1.70;;;0.52;;
38240;SDS011;24037;49.536;8.500;2023-01-15T01:33:52;1.23;;;0.30;;
38240;SDS011;24037;49.536;8.500;2023-01-15T01:36:24;1.20;;;0.50;;
38240;SDS011;24037;49.536;8.500;2023-01-15T01:38:53;0.45;;;0.32;;
38240;SDS011;24037;49.536;8.500;2023-01-15T01:41:19;1.00;;;0.68;;
38240;SDS011;24037;49.536;8.500;2023-01-15T01:43:53;0.93;;;0.38;;
38240;SDS011;24037;49.536;8.500;2023-01-15T01:46:20;1.30;;;0.40;;
38240;SDS011;24037;49.536;8.500;2023-01-15T01:48:46;1.00;;;0.40;;
38240;SDS011;24037;49.536;8.500;2023-01-15T01:51:15;1.40;;;0.40;;
38240;SDS011;24037;49.536;8.500;2023-01-15T01:53:44;0.60;;;0.30;;
38240;SDS011;24037;49.536;8.500;2023-01-15T01:56:11;0.47;;;0.30;;
38240;SDS011;24037;49.536;8.500;2023-01-15T01:58:37;0.45;;;0.30;;
38240;SDS011;24037;49.536;8.500;2023-01-15T02:01:04;0.90;;;0.32;;
38240;SDS011;24037;49.536;8.500;2023-01-15T02:03:31;0.50;;;0.32;;
38240;SDS011;24037;49.536;8.500;2023-01-15T02:06:02;0.50;;;0.30;;
38240;SDS011;24037;49.536;8.500;2023-01-15T02:08:33;0.77;;;0.50;;
38240;SDS011;24037;49.536;8.500;2023-01-15T02:10:59;1.55;;;0.40;;
38240;SDS011;24037;49.536;8.500;2023-01-15T02:13:36;1.90;;;0.65;;
38240;SDS011;24037;49.536;8.500;2023-01-15T02:21:42;1.30;;;0.40;;
38240;SDS011;24037;49.536;8.500;2023-01-15T02:27:15;2.10;;;0.55;;
38240;SDS011;24037;49.536;8.500;2023-01-15T02:33:00;1.40;;;0.40;;
38240;SDS011;24037;49.536;8.500;2023-01-15T02:35:33;1.80;;;0.65;;
38240;SDS011;24037;49.536;8.500;2023-01-15T02:38:07;1.20;;;0.60;;
38240;SDS011;24037;49.536;8.500;2023-01-15T02:40:37;1.80;;;0.52;;
38240;SDS011;24037;49.536;8.500;2023-01-15T02:43:06;0.77;;;0.35;;
38240;SDS011;24037;49.536;8.500;2023-01-15T02:45:35;1.67;;;0.55;;
38240;SDS011;24037;49.536;8.500;2023-01-15T02:48:11;0.82;;;0.40;;
38240;SDS011;24037;49.536;8.500;2023-01-15T02:50:41;0.55;;;0.20;;
38240;SDS011;24037;49.536;8.500;2023-01-15T02:53:11;1.55;;;0.40;;
38240;SDS011;24037;49.536;8.500;2023-01-15T02:55:45;0.90;;;0.40;;
38240;SDS011;24037;49.536;8.500;2023-01-15T02:58:16;0.70;;;0.30;;
38240;SDS011;24037;49.536;8.500;2023-01-15T03:00:48;0.30;;;0.20;;
38240;SDS011;24037;49.536;8.500;2023-01-15T03:06:10;0.57;;;0.20;;
38240;SDS011;24037;49.536;8.500;2023-01-15T03:08:45;0.45;;;0.20;;
38240;SDS011;24037;49.536;8.500;2023-01-15T03:11:12;0.63;;;0.20;;
38240;SDS011;24037;49.536;8.500;2023-01-15T03:13:57;0.20;;;0.10;;
38240;SDS011;24037;49.536;8.500;2023-01-15T03:19:10;0.10;;;0.10;;
38240;SDS011;24037;49.536;8.500;2023-01-15T03:21:48;0.10;;;0.10;;
38240;SDS011;24037;49.536;8.500;2023-01-15T03:24:19;0.10;;;0.10;;
38240;SDS011;24037;49.536;8.500;2023-01-15T03:26:53;0.45;;;0.10;;
38240;SDS011;24037;49.536;8.500;2023-01-15T03:29:21;0.10;;;0.10;;
38240;SDS011;24037;49.536;8.500;2023-01-15T03:31:51;0.38;;;0.35;;
38240;SDS011;24037;49.536;8.500;2023-01-15T03:34:18;0.20;;;0.10;;
38240;SDS011;24037;49.536;8.500;2023-01-15T03:36:45;0.10;;;0.10;;
38240;SDS011;24037;49.536;8.500;2023-01-15T03:39:12;0.32;;;0.13;;
38240;SDS011;24037;49.536;8.500;2023-01-15T03:44:44;1.67;;;0.20;;
38240;SDS011;24037;49.536;8.500;2023-01-15T03:50:14;0.20;;;0.10;;
38240;SDS011;24037;49.536;8.500;2023-01-15T03:52:47;0.20;;;0.20;;
38240;SDS011;24037;49.536;8.500;2023-01-15T03:58:46;3.38;;;0.20;;
38240;SDS011;24037;49.536;8.500;2023-01-15T04:01:27;0.30;;;0.20;;
38240;SDS011;24037;49.536;8.500;2023-01-15T04:03:59;0.30;;;0.15;;
38240;SDS011;24037;49.536;8.500;2023-01-15T04:06:28;0.60;;;0.10;;
38240;SDS011;24037;49.536;8.500;2023-01-15T04:08:59;0.20;;;0.13;;
38240;SDS011;24037;49.536;8.500;2023-01-15T04:11:28;0.17;;;0.15;;
38240;SDS011;24037;49.536;8.500;2023-01-15T04:14:00;0.32;;;0.10;;
38240;SDS011;24037;49.536;8.500;2023-01-15T04:16:33;0.20;;;0.10;;
38240;SDS011;24037;49.536;8.500;2023-01-15T04:18:59;0.57;;;0.20;;
38240;SDS011;24037;49.536;8.500;2023-01-15T04:21:27;0.68;;;0.20;;
38240;SDS011;24037;49.536;8.500;2023-01-15T04:23:53;0.20;;;0.20;;
38240;SDS011;24037;49.536;8.500;2023-01-15T04:26:19;0.28;;;0.20;;
38240;SDS011;24037;49.536;8.500;2023-01-15T04:28:46;2.22;;;0.20;;
38240;SDS011;24037;49.536;8.500;2023-01-15T04:31:12;0.10;;;0.10;;
38240;SDS011;24037;49.536;8.500;2023-01-15T04:33:38;1.83;;;0.20;;
38240;SDS011;24037;49.536;8.500;2023-01-15T04:36:05;0.30;;;0.20;;
38240;SDS011;24037;49.536;8.500;2023-01-15T04:38:33;0.10;;;0.10;;
38240;SDS011;24037;49.536;8.500;2023-01-15T04:41:01;0.30;;;0.10;;
38240;SDS011;24037;49.536;8.500;2023-01-15T04:43:46;0.20;;;0.10;;
38240;SDS011;24037;49.536;8.500;2023-01-15T04:46:31;0.10;;;0.10;;
38240;SDS011;24037;49.536;8.500;2023-01-15T04:48:59;0.17;;;0.13;;
38240;SDS011;24037;49.536;8.500;2023-01-15T04:51:25;0.28;;;0.10;;
38240;SDS011;24037;49.536;8.500;2023-01-15T04:53:51;0.30;;;0.30;;
38240;SDS011;24037;49.536;8.500;2023-01-15T04:56:18;1.73;;;0.15;;
38240;SDS011;24037;49.536;8.500;2023-01-15T04:58:44;0.30;;;0.10;;
38240;SDS011;24037;49.536;8.500;2023-01-15T05:01:14;0.40;;;0.10;;
38240;SDS011;24037;49.536;8.500;2023-01-15T05:03:41;0.25;;;0.10;;
38240;SDS011;24037;49.536;8.500;2023-01-15T05:06:08;0.70;;;0.20;;
38240;SDS011;24037;49.536;8.500;2023-01-15T05:08:35;0.35;;;0.20;;
38240;SDS011;24037;49.536;8.500;2023-01-15T05:11:02;0.85;;;0.10;;
38240;SDS011;24037;49.536;8.500;2023-01-15T05:13:29;0.10;;;0.10;;
38240;SDS011;24037;49.536;8.500;2023-01-15T05:16:07;0.25;;;0.25;;
38240;SDS011;24037;49.536;8.500;2023-01-15T05:21:05;0.10;;;0.10;;
38240;SDS011;24037;49.536;8.500;2023-01-15T05:23:31;0.13;;;0.10;;
38240;SDS011;24037;49.536;8.500;2023-01-15T05:26:01;0.30;;;0.10;;
38240;SDS011;24037;49.536;8.500;2023-01-15T05:28:27;0.95;;;0.20;;
38240;SDS011;24037;49.536;8.500;2023-01-15T05:30:54;0.52;;;0.20;;
38240;SDS011;24037;49.536;8.500;2023-01-15T05:33:20;0.75;;;0.17;;
38240;SDS011;24037;49.536;8.500;2023-01-15T05:35:46;0.10;;;0.10;;
38240;SDS011;24037;49.536;8.500;2023-01-15T05:38:12;0.65;;;0.10;;
38240;SDS011;24037;49.536;8.500;2023-01-15T05:40:38;0.30;;;0.10;;
38240;SDS011;24037;49.536;8.500;2023-01-15T05:43:04;0.55;;;0.20;;
38240;SDS011;24037;49.536;8.500;2023-01-15T05:45:33;0.22;;;0.10;;
38240;SDS011;24037;49.536;8.500;2023-01-15T05:48:00;0.17;;;0.10;;
38240;SDS011;24037;49.536;8.500;2023-01-15T05:50:26;6.78;;;2.83;;
38240;SDS011;24037;49.536;8.500;2023-01-15T05:52:53;2.03;;;0.60;;
38240;SDS011;24037;49.536;8.500;2023-01-15T05:55:19;0.60;;;0.25;;
38240;SDS011;24037;49.536;8.500;2023-01-15T05:57:45;0.50;;;0.20;;
38240;SDS011;24037;49.536;8.500;2023-01-15T06:00:11;0.32;;;0.15;;
38240;SDS011;24037;49.536;8.500;2023-01-15T06:02:41;0.20;;;0.10;;
38240;SDS011;24037;49.536;8.500;2023-01-15T06:05:07;0.10;;;0.10;;
38240;SDS011;24037;49.536;8.500;2023-01-15T06:07:33;0.30;;;0.10;;
38240;SDS011;24037;49.536;8.500;2023-01-15T06:10:00;0.10;;;0.10;;
38240;SDS011;24037;49.536;8.500;2023-01-15T06:12:26;0.30;;;0.10;;
38240;SDS011;24037;49.536;8.500;2023-01-15T06:14:52;0.35;;;0.10;;
38240;SDS011;24037;49.536;8.500;2023-01-15T06:17:18;0.10;;;0.10;;
38240;SDS011;24037;49.536;8.500;2023-01-15T06:19:44;0.20;;;0.10;;
38240;SDS011;24037;49.536;8.500;2023-01-15T06:22:10;0.10;;;0.10;;
38240;SDS011;24037;49.536;8.500;2023-01-15T06:24:36;0.25;;;0.20;;
38240;SDS011;24037;49.536;8.500;2023-01-15T06:27:02;0.43;;;0.20;;
38240;SDS011;24037;49.536;8.500;2023-01-15T06:29:29;0.25;;;0.20;;
38240;SDS011;24037;49.536;8.500;2023-01-15T06:31:55;0.10;;;0.10;;
38240;SDS011;24037;49.536;8.500;2023-01-15T06:34:21;0.30;;;0.17;;
38240;SDS011;24037;49.536;8.500;2023-01-15T06:36:47;0.10;;;0.10;;
38240;SDS011;24037;49.536;8.500;2023-01-15T06:39:13;0.28;;;0.20;;
38240;SDS011;24037;49.536;8.500;2023-01-15T06:41:40;0.10;;;0.10;;
38240;SDS011;24037;49.536;8.500;2023-01-15T06:44:25;0.10;;;0.10;;
38240;SDS011;24037;49.536;8.500;2023-01-15T06:47:12;0.10;;;0.10;;
38240;SDS011;24037;49.536;8.500;2023-01-15T06:49:45;0.30;;;0.10;;
38240;SDS011;24037;49.536;8.500;2023-01-15T06:52:12;0.10;;;0.10;;
38240;SDS011;24037;49.536;8.500;2023-01-15T06:54:38;0.10;;;0.10;;
38240;SDS011;24037;49.536;8.500;2023-01-15T06:57:04;0.13;;;0.10;;
38240;SDS011;24037;49.536;8.500;2023-01-15T06:59:32;0.52;;;0.47;;
38240;SDS011;24037;49.536;8.500;2023-01-15T07:01:58;0.63;;;0.20;;
38240;SDS011;24037;49.536;8.500;2023-01-15T07:04:25;0.40;;;0.20;;
38240;SDS011;24037;49.536;8.500;2023-01-15T07:06:51;0.95;;;0.35;;
38240;SDS011;24037;49.536;8.500;2023-01-15T07:09:17;1.27;;;0.50;;
38240;SDS011;24037;49.536;8.500;2023-01-15T07:11:43;2.40;;;0.68;;
38240;SDS011;24037;49.536;8.500;2023-01-15T07:14:16;3.50;;;1.67;;
38240;SDS011;24037;49.536;8.500;2023-01-15T07:16:43;5.25;;;1.42;;
38240;SDS011;24037;49.536;8.500;2023-01-15T07:19:10;6.38;;;1.83;;
38240;SDS011;24037;49.536;8.500;2023-01-15T07:21:36;8.00;;;2.28;;
38240;SDS011;24037;49.536;8.500;2023-01-15T07:24:02;5.30;;;1.70;;
38240;SDS011;24037;49.536;8.500;2023-01-15T07:26:29;5.15;;;1.58;;
38240;SDS011;24037;49.536;8.500;2023-01-15T07:28:57;3.30;;;0.80;;
38240;SDS011;24037;49.536;8.500;2023-01-15T07:31:24;3.78;;;0.70;;
38240;SDS011;24037;49.536;8.500;2023-01-15T07:33:50;3.40;;;0.77;;
38240;SDS011;24037;49.536;8.500;2023-01-15T07:36:16;1.75;;;1.00;;
38240;SDS011;24037;49.536;8.500;2023-01-15T07:38:42;2.15;;;0.82;;
38240;SDS011;24037;49.536;8.500;2023-01-15T07:41:08;1.63;;;0.70;;
38240;SDS011;24037;49.536;8.500;2023-01-15T07:43:53;1.10;;;0.75;;
38240;SDS011;24037;49.536;8.500;2023-01-15T07:46:38;0.82;;;0.57;;
38240;SDS011;24037;49.536;8.500;2023-01-15T07:49:23;0.90;;;0.50;;
38240;SDS011;24037;49.536;8.500;2023-01-15T07:52:08;0.50;;;0.30;;
38240;SDS011;24037;49.536;8.500;2023-01-15T07:54:34;3.00;;;0.50;;
38240;SDS011;24037;49.536;8.500;2023-01-15T07:57:00;0.50;;;0.20;;
38240;SDS011;24037;49.536;8.500;2023-01-15T07:59:27;0.30;;;0.30;;
38240;SDS011;24037;49.536;8.500;2023-01-15T08:01:53;1.05;;;0.40;;
38240;SDS011;24037;49.536;8.500;2023-01-15T08:04:19;1.05;;;0.40;;
38240;SDS011;24037;49.536;8.500;2023-01-15T08:06:46;0.57;;;0.30;;
38240;SDS011;24037;49.536;8.500;2023-01-15T08:09:12;0.73;;;0.35;;
38240;SDS011;24037;49.536;8.500;2023-01-15T08:11:38;1.05;;;0.50;;
38240;SDS011;24037;49.536;8.500;2023-01-15T08:14:23;0.80;;;0.30;;
38240;SDS011;24037;49.536;8.500;2023-01-15T08:17:08;0.90;;;0.25;;
38240;SDS011;24037;49.536;8.500;2023-01-15T08:19:34;1.83;;;0.40;;
38240;SDS011;24037;49.536;8.500;2023-01-15T08:22:00;1.23;;;0.40;;
38240;SDS011;24037;49.536;8.500;2023-01-15T08:24:26;1.02;;;0.40;;
38240;SDS011;24037;49.536;8.500;2023-01-15T08:26:53;1.10;;;0.52;;
38240;SDS011;24037;49.536;8.500;2023-01-15T08:29:19;1.70;;;0.75;;
38240;SDS011;24037;49.536;8.500;2023-01-15T08:31:46;1.58;;;0.50;;
38240;SDS011;24037;49.536;8.500;2023-01-15T08:34:13;1.17;;;0.30;;
38240;SDS011;24037;49.536;8.500;2023-01-15T08:36:39;1.85;;;0.55;;
38240;SDS011;24037;49.536;8.500;2023-01-15T08:39:05;1.15;;;0.43;;
38240;SDS011;24037;49.536;8.500;2023-01-15T08:41:31;1.70;;;0.95;;
38240;SDS011;24037;49.536;8.500;2023-01-15T08:43:58;1.67;;;0.60;;
38240;SDS011;24037;49.536;8.500;2023-01-15T08:46:24;2.30;;;0.68;;
38240;SDS011;24037;49.536;8.500;2023-01-15T08:48:50;0.95;;;0.40;;
38240;SDS011;24037;49.536;8.500;2023-01-15T08:51:18;0.28;;;0.10;;
38240;SDS011;24037;49.536;8.500;2023-01-15T08:53:44;0.30;;;0.20;;
38240;SDS011;24037;49.536;8.500;2023-01-15T08:56:11;0.98;;;0.40;;
38240;SDS011;24037;49.536;8.500;2023-01-15T08:58:38;0.60;;;0.20;;
38240;SDS011;24037;49.536;8.500;2023-01-15T09:01:05;0.55;;;0.30;;
38240;SDS011;24037;49.536;8.500;2023-01-15T09:03:33;1.00;;;0.30;;
38240;SDS011;24037;49.536;8.500;2023-01-15T09:06:00;0.82;;;0.30;;
38240;SDS011;24037;49.536;8.500;2023-01-15T09:08:28;0.63;;;0.30;;
38240;SDS011;24037;49.536;8.500;2023-01-15T09:10:58;0.50;;;0.30;;
38240;SDS011;24037;49.536;8.500;2023-01-15T09:13:26;0.73;;;0.30;;
38240;SDS011;24037;49.536;8.500;2023-01-15T09:15:53;0.40;;;0.20;;
38240;SDS011;24037;49.536;8.500;2023-01-15T09:18:23;0.80;;;0.30;;
38240;SDS011;24037;49.536;8.500;2023-01-15T09:20:49;2.38;;;1.45;;
38240;SDS011;24037;49.536;8.500;2023-01-15T09:23:15;2.13;;;0.80;;
38240;SDS011;24037;49.536;8.500;2023-01-15T09:25:52;1.75;;;0.82;;
38240;SDS011;24037;49.536;8.500;2023-01-15T09:28:23;2.80;;;0.70;;
38240;SDS011;24037;49.536;8.500;2023-01-15T09:30:49;3.67;;;0.60;;
38240;SDS011;24037;49.536;8.500;2023-01-15T09:33:16;2.42;;;0.88;;
38240;SDS011;24037;49.536;8.500;2023-01-15T09:35:42;4.13;;;1.10;;
38240;SDS011;24037;49.536;8.500;2023-01-15T09:38:10;2.85;;;0.73;;
38240;SDS011;24037;49.536;8.500;2023-01-15T09:40:53;7.47;;;1.23;;
38240;SDS011;24037;49.536;8.500;2023-01-15T09:43:38;4.75;;;1.00;;
38240;SDS011;24037;49.536;8.500;2023-01-15T09:46:11;3.50;;;0.80;;
38240;SDS011;24037;49.536;8.500;2023-01-15T09:48:49;2.45;;;0.63;;
38240;SDS011;24037;49.536;8.500;2023-01-15T09:54:19;4.07;;;0.80;;
38240;SDS011;24037;49.536;8.500;2023-01-15T09:57:10;3.13;;;0.73;;
38240;SDS011;24037;49.536;8.500;2023-01-15T09:59:39;2.13;;;0.60;;
38240;SDS011;24037;49.536;8.500;2023-01-15T10:02:14;1.40;;;0.50;;
38240;SDS011;24037;49.536;8.500;2023-01-15T10:04:52;1.88;;;0.60;;
38240;SDS011;24037;49.536;8.500;2023-01-15T10:07:42;3.35;;;1.42;;
38240;SDS011;24037;49.536;8.500;2023-01-15T10:10:19;4.38;;;1.17;;
38240;SDS011;24037;49.536;8.500;2023-01-15T10:15:21;2.35;;;0.70;;
38240;SDS011;24037;49.536;8.500;2023-01-15T10:17:49;2.40;;;0.40;;
38240;SDS011;24037;49.536;8.500;2023-01-15T10:20:26;2.30;;;0.60;;
38240;SDS011;24037;49.536;8.500;2023-01-15T10:25:54;0.60;;;0.30;;
38240;SDS011;24037;49.536;8.500;2023-01-15T10:28:51;0.40;;;0.20;;
38240;SDS011;24037;49.536;8.500;2023-01-15T10:31:52;1.50;;;0.50;;
38240;SDS011;24037;49.536;8.500;2023-01-15T10:34:32;0.77;;;0.35;;
38240;SDS011;24037;49.536;8.500;2023-01-15T10:37:12;1.05;;;0.50;;
38240;SDS011;24037;49.536;8.500;2023-01-15T10:45:54;3.47;;;1.00;;
38240;SDS011;24037;49.536;8.500;2023-01-15T10:48:29;3.47;;;2.13;;
38240;SDS011;24037;49.536;8.500;2023-01-15T10:53:46;2.15;;;0.55;;
38240;SDS011;24037;49.536;8.500;2023-01-15T10:58:57;1.63;;;0.30;;
38240;SDS011;24037;49.536;8.500;2023-01-15T11:01:33;1.17;;;0.43;;
38240;SDS011;24037;49.536;8.500;2023-01-15T11:04:00;1.15;;;0.40;;
38240;SDS011;24037;49.536;8.500;2023-01-15T11:06:28;1.27;;;0.55;;
38240;SDS011;24037;49.536;8.500;2023-01-15T11:08:56;1.50;;;0.40;;
38240;SDS011;24037;49.536;8.500;2023-01-15T11:14:38;1.52;;;0.32;;
38240;SDS011;24037;49.536;8.500;2023-01-15T11:17:28;2.35;;;0.40;;
38240;SDS011;24037;49.536;8.500;2023-01-15T11:22:53;0.82;;;0.30;;
38240;SDS011;24037;49.536;8.500;2023-01-15T11:25:27;1.50;;;0.20;;
38240;SDS011;24037;49.536;8.500;2023-01-15T11:27:56;1.23;;;0.20;;
38240;SDS011;24037;49.536;8.500;2023-01-15T11:30:27;0.77;;;0.30;;
38240;SDS011;24037;49.536;8.500;2023-01-15T11:32:57;0.63;;;0.30;;
38240;SDS011;24037;49.536;8.500;2023-01-15T11:35:26;0.90;;;0.28;;
38240;SDS011;24037;49.536;8.500;2023-01-15T11:38:13;1.80;;;0.30;;
38240;SDS011;24037;49.536;8.500;2023-01-15T11:40:50;0.70;;;0.30;;
38240;SDS011;24037;49.536;8.500;2023-01-15T11:43:23;1.23;;;0.38;;
38240;SDS011;24037;49.536;8.500;2023-01-15T11:46:24;2.65;;;0.60;;
38240;SDS011;24037;49.536;8.500;2023-01-15T11:49:18;1.13;;;0.47;;
38240;SDS011;24037;49.536;8.500;2023-01-15T11:52:08;0.90;;;0.63;;
38240;SDS011;24037;49.536;8.500;2023-01-15T11:54:38;2.33;;;0.95;;
38240;SDS011;24037;49.536;8.500;2023-01-15T11:57:10;3.70;;;0.82;;
38240;SDS011;24037;49.536;8.500;2023-01-15T11:59:47;5.68;;;2.17;;
38240;SDS011;24037;49.536;8.500;2023-01-15T12:02:16;3.55;;;1.23;;
38240;SDS011;24037;49.536;8.500;2023-01-15T12:04:54;2.72;;;0.45;;
38240;SDS011;24037;49.536;8.500;2023-01-15T12:07:26;2.28;;;0.60;;
38240;SDS011;24037;49.536;8.500;2023-01-15T12:12:47;1.95;;;0.60;;
38240;SDS011;24037;49.536;8.500;2023-01-15T12:15:28;2.53;;;0.82;;
38240;SDS011;24037;49.536;8.500;2023-01-15T12:21:03;3.95;;;0.95;;
38240;SDS011;24037;49.536;8.500;2023-01-15T12:23:52;2.22;;;1.13;;
38240;SDS011;24037;49.536;8.500;2023-01-15T12:26:52;1.83;;;0.80;;
38240;SDS011;24037;49.536;8.500;2023-01-15T12:29:42;1.85;;;0.70;;
38240;SDS011;24037;49.536;8.500;2023-01-15T12:32:16;1.38;;;0.60;;
38240;SDS011;24037;49.536;8.500;2023-01-15T12:35:34;1.67;;;1.02;;
38240;SDS011;24037;49.536;8.500;2023-01-15T12:37:51;1.13;;;0.55;;
38240;SDS011;24037;49.536;8.500;2023-01-15T12:42:49;3.22;;;1.02;;
38240;SDS011;24037;49.536;8.500;2023-01-15T12:45:37;1.90;;;0.80;;
38240;SDS011;24037;49.536;8.500;2023-01-15T12:48:28;3.08;;;0.50;;
38240;SDS011;24037;49.536;8.500;2023-01-15T12:51:02;1.25;;;0.30;;
38240;SDS011;24037;49.536;8.500;2023-01-15T12:53:44;1.70;;;0.40;;
38240;SDS011;24037;49.536;8.500;2023-01-15T12:56:20;2.38;;;0.57;;
38240;SDS011;24037;49.536;8.500;2023-01-15T12:59:09;0.73;;;0.30;;
38240;SDS011;24037;49.536;8.500;2023-01-15T13:02:03;2.35;;;1.30;;
38240;SDS011;24037;49.536;8.500;2023-01-15T13:04:54;3.97;;;0.68;;
38240;SDS011;24037;49.536;8.500;2023-01-15T13:10:08;3.08;;;0.90;;
38240;SDS011;24037;49.536;8.500;2023-01-15T13:13:17;3.38;;;0.60;;
38240;SDS011;24037;49.536;8.500;2023-01-15T13:21:54;2.88;;;0.60;;
38240;SDS011;24037;49.536;8.500;2023-01-15T13:27:09;0.95;;;0.60;;
38240;SDS011;24037;49.536;8.500;2023-01-15T13:32:41;3.10;;;0.65;;
38240;SDS011;24037;49.536;8.500;2023-01-15T13:37:57;3.15;;;0.65;;
38240;SDS011;24037;49.536;8.500;2023-01-15T13:40:26;2.35;;;0.85;;
38240;SDS011;24037;49.536;8.500;2023-01-15T13:42:59;2.78;;;1.48;;
38240;SDS011;24037;49.536;8.500;2023-01-15T13:45:34;3.92;;;1.00;;
38240;SDS011;24037;49.536;8.500;2023-01-15T13:48:04;3.67;;;0.90;;
38240;SDS011;24037;49.536;8.500;2023-01-15T13:50:39;2.75;;;0.88;;
38240;SDS011;24037;49.536;8.500;2023-01-15T13:55:37;4.28;;;1.10;;
38240;SDS011;24037;49.536;8.500;2023-01-15T13:58:16;4.60;;;1.58;;
38240;SDS011;24037;49.536;8.500;2023-01-15T14:01:20;7.55;;;1.83;;
38240;SDS011;24037;49.536;8.500;2023-01-15T14:06:37;5.30;;;1.45;;
38240;SDS011;24037;49.536;8.500;2023-01-15T14:09:13;6.10;;;2.38;;
38240;SDS011;24037;49.536;8.500;2023-01-15T14:31:23;2.65;;;0.95;;
38240;SDS011;24037;49.536;8.500;2023-01-15T14:37:04;2.63;;;0.77;;
38240;SDS011;24037;49.536;8.500;2023-01-15T14:39:52;2.53;;;1.10;;
38240;SDS011;24037;49.536;8.500;2023-01-15T14:47:43;3.80;;;0.65;;
38240;SDS011;24037;49.536;8.500;2023-01-15T14:52:53;1.98;;;0.75;;
38240;SDS011;24037;49.536;8.500;2023-01-15T14:55:23;4.03;;;0.80;;
38240;SDS011;24037;49.536;8.500;2023-01-15T14:57:55;3.78;;;1.15;;
38240;SDS011;24037;49.536;8.500;2023-01-15T15:00:34;7.40;;;1.08;;
38240;SDS011;24037;49.536;8.500;2023-01-15T15:03:16;3.67;;;0.90;;
38240;SDS011;24037;49.536;8.500;2023-01-15T15:05:46;2.38;;;0.70;;
38240;SDS011;24037;49.536;8.500;2023-01-15T15:08:13;2.78;;;1.27;;
38240;SDS011;24037;49.536;8.500;2023-01-15T15:10:42;1.75;;;0.60;;
38240;SDS011;24037;49.536;8.500;2023-01-15T15:16:03;4.78;;;1.00;;
38240;SDS011;24037;49.536;8.500;2023-01-15T15:18:47;3.35;;;1.00;;
38240;SDS011;24037;49.536;8.500;2023-01-15T15:21:32;2.00;;;0.95;;
38240;SDS011;24037;49.536;8.500;2023-01-15T15:24:10;2.60;;;0.65;;
38240;SDS011;24037;49.536;8.500;2023-01-15T15:26:56;7.78;;;1.63;;
38240;SDS011;24037;49.536;8.500;2023-01-15T15:29:38;3.75;;;1.00;;
38240;SDS011;24037;49.536;8.500;2023-01-15T15:32:05;3.83;;;1.00;;
38240;SDS011;24037;49.536;8.500;2023-01-15T15:34:36;3.53;;;0.75;;
38240;SDS011;24037;49.536;8.500;2023-01-15T15:37:14;3.08;;;1.10;;
38240;SDS011;24037;49.536;8.500;2023-01-15T15:42:23;2.30;;;0.73;;
38240;SDS011;24037;49.536;8.500;2023-01-15T15:45:21;1.92;;;0.60;;
38240;SDS011;24037;49.536;8.500;2023-01-15T15:48:18;3.25;;;0.95;;
38240;SDS011;24037;49.536;8.500;2023-01-15T15:56:31;5.28;;;1.38;;
38240;SDS011;24037;49.536;8.500;2023-01-15T15:58:58;3.50;;;0.93;;
38240;SDS011;24037;49.536;8.500;2023-01-15T16:01:25;6.22;;;1.20;;
38240;SDS011;24037;49.536;8.500;2023-01-15T16:03:51;2.30;;;0.93;;
38240;SDS011;24037;49.536;8.500;2023-01-15T16:06:18;4.78;;;1.13;;
38240;SDS011;24037;49.536;8.500;2023-01-15T16:08:56;3.40;;;1.20;;
38240;SDS011;24037;49.536;8.500;2023-01-15T16:11:29;2.25;;;1.30;;
38240;SDS011;24037;49.536;8.500;2023-01-15T16:13:58;3.92;;;1.42;;
38240;SDS011;24037;49.536;8.500;2023-01-15T16:16:28;5.40;;;2.17;;
38240;SDS011;24037;49.536;8.500;2023-01-15T16:18:55;6.57;;;1.48;;
38240;SDS011;24037;49.536;8.500;2023-01-15T16:21:27;7.25;;;1.33;;
38240;SDS011;24037;49.536;8.500;2023-01-15T16:24:00;4.40;;;1.00;;
38240;SDS011;24037;49.536;8.500;2023-01-15T16:26:32;3.67;;;1.40;;
38240;SDS011;24037;49.536;8.500;2023-01-15T16:29:23;4.18;;;1.40;;
38240;SDS011;24037;49.536;8.500;2023-01-15T16:31:52;8.45;;;2.58;;
38240;SDS011;24037;49.536;8.500;2023-01-15T16:34:22;4.80;;;1.05;;
38240;SDS011;24037;49.536;8.500;2023-01-15T16:36:51;5.80;;;1.08;;
38240;SDS011;24037;49.536;8.500;2023-01-15T16:39:24;3.65;;;1.23;;
38240;SDS011;24037;49.536;8.500;2023-01-15T16:41:55;7.90;;;1.20;;
38240;SDS011;24037;49.536;8.500;2023-01-15T16:44:30;2.83;;;1.15;;
38240;SDS011;24037;49.536;8.500;2023-01-15T16:47:04;2.53;;;0.80;;
38240;SDS011;24037;49.536;8.500;2023-01-15T16:49:32;4.93;;;1.13;;
38240;SDS011;24037;49.536;8.500;2023-01-15T16:51:59;4.00;;;0.93;;
38240;SDS011;24037;49.536;8.500;2023-01-15T16:56:59;4.85;;;1.45;;
38240;SDS011;24037;49.536;8.500;2023-01-15T17:02:03;6.63;;;0.93;;
38240;SDS011;24037;49.536;8.500;2023-01-15T17:04:37;2.97;;;1.30;;
38240;SDS011;24037;49.536;8.500;2023-01-15T17:09:46;3.88;;;1.27;;
38240;SDS011;24037;49.536;8.500;2023-01-15T17:12:23;3.25;;;0.90;;
38240;SDS011;24037;49.536;8.500;2023-01-15T17:17:40;7.13;;;1.27;;
38240;SDS011;24037;49.536;8.500;2023-01-15T17:20:07;3.35;;;0.98;;
38240;SDS011;24037;49.536;8.500;2023-01-15T17:22:35;6.00;;;1.23;;
38240;SDS011;24037;49.536;8.500;2023-01-15T17:25:18;3.75;;;1.40;;
38240;SDS011;24037;49.536;8.500;2023-01-15T17:27:51;5.93;;;1.40;;
38240;SDS011;24037;49.536;8.500;2023-01-15T17:30:19;3.67;;;1.00;;
38240;SDS011;24037;49.536;8.500;2023-01-15T17:32:45;3.97;;;1.02;;
38240;SDS011;24037;49.536;8.500;2023-01-15T17:37:49;2.53;;;0.73;;